Time;durP1;ratioP1;P1;durP2;ratioP2;P2;SDS_P1;SDS_P2;PMS_P1;PMS_P2;Temp;Humidity;BMP_temperature;BMP_pressure;BME280_temperature;BME280_humidity;BME280_pressure;Samples;Min_cycle;Max_cycle;Signal;HPM_P1;HPM_P2
2022/05/09 00:03:54;;;;;;;;;;;;;;;10.05;49.66211;102929.3;;;;-81
2022/05/09 00:08:59;;;;;;;;;;;;;;;10.02;49.87109;102932.5;;;;-82
2022/05/09 00:13:50;;;;;;;;;;;;;;;9.99;49.87695;102929.1;;;;-83
2022/05/09 00:14:49;;;;;;;3.5;1.2;;;;;;;;;;;;;-83
2022/05/09 00:18:52;;;;;;;;;;;;;;;9.94;49.77148;102922.1;;;;-81
2022/05/09 00:23:51;;;;;;;;;;;;;;;9.92;49.84766;102920;;;;-83
2022/05/09 00:28:49;;;;;;;;;;;;;;;9.9;49.53418;102919.1;;;;-84
2022/05/09 00:33:50;;;;;;;;;;;;;;;9.84;49.7041;102916.5;;;;-84
2022/05/09 00:38:56;;;;;;;;;;;;;;;9.82;49.72461;102918.4;;;;-83
2022/05/09 00:43:50;;;;;;;;;;;;;;;9.77;49.76367;102916.1;;;;-83
2022/05/09 00:44:50;;;;;;;6.2;1.5;;;;;;;;;;;;;-85
2022/05/09 00:48:49;;;;;;;;;;;;;;;9.7;49.59961;102906.1;;;;-83
2022/05/09 00:53:50;;;;;;;;;;;;;;;9.69;49.6543;102909.8;;;;-83
2022/05/09 00:58:55;;;;;;;;;;;;;;;9.67;49.79688;102907.6;;;;-82
2022/05/09 01:03:56;;;;;;;;;;;;;;;9.63;49.78125;102905.2;;;;-83
2022/05/09 01:08:50;;;;;;;;;;;;;;;9.59;49.84375;102901.3;;;;-84
2022/05/09 01:13:51;;;;;;;;;;;;;;;9.56;49.81836;102898.2;;;;-83
2022/05/09 01:14:48;;;;;;;3.9;1.4;;;;;;;;;;;;;-84
2022/05/09 01:18:54;;;;;;;;;;;;;;;9.53;49.77051;102895.1;;;;-84
2022/05/09 01:23:49;;;;;;;;;;;;;;;9.48;49.79785;102890.2;;;;-84
2022/05/09 01:28:50;;;;;;;;;;;;;;;9.45;49.83887;102890.6;;;;-82
2022/05/09 01:33:54;;;;;;;;;;;;;;;9.41;50.17871;102879.1;;;;-83
2022/05/09 01:38:54;;;;;;;;;;;;;;;9.38;49.99902;102870.1;;;;-83
2022/05/09 01:43:55;;;;;;;;;;;;;;;9.34;49.98242;102870.3;;;;-84
2022/05/09 01:44:49;;;;;;;7.4;1.4;;;;;;;;;;;;;-84
2022/05/09 01:53:53;;;;;;;;;;;;;;;9.28;50.35449;102864.8;;;;-83
2022/05/09 01:58:50;;;;;;;;;;;;;;;9.27;50.17383;102866.7;;;;-84
2022/05/09 02:03:50;;;;;;;;;;;;;;;9.26;50.27344;102871.6;;;;-83
2022/05/09 02:08:50;;;;;;;;;;;;;;;9.21;50.41309;102859.1;;;;-82
2022/05/09 02:13:49;;;;;;;;;;;;;;;9.2;50.45508;102855.8;;;;-84
2022/05/09 02:14:52;;;;;;;6.4;1.6;;;;;;;;;;;;;-82
2022/05/09 02:18:49;;;;;;;;;;;;;;;9.16;51.01855;102852.9;;;;-82
2022/05/09 02:23:49;;;;;;;;;;;;;;;9.16;50.64063;102857.7;;;;-82
2022/05/09 02:28:51;;;;;;;;;;;;;;;9.13;50.68164;102858.6;;;;-83
2022/05/09 02:33:49;;;;;;;;;;;;;;;9.12;50.64746;102856.2;;;;-83
2022/05/09 02:38:52;;;;;;;;;;;;;;;9.07;50.94141;102852.9;;;;-80
2022/05/09 02:43:50;;;;;;;;;;;;;;;9.06;50.85059;102850.8;;;;-83
2022/05/09 02:44:52;;;;;;;3.7;1.3;;;;;;;;;;;;;-83
2022/05/09 02:48:49;;;;;;;;;;;;;;;9;50.85547;102849;;;;-84
2022/05/09 02:53:50;;;;;;;;;;;;;;;9.01;50.81152;102848;;;;-82
2022/05/09 02:58:51;;;;;;;;;;;;;;;9.01;50.59961;102847.3;;;;-81
2022/05/09 03:08:49;;;;;;;;;;;;;;;8.92;50.7793;102838.1;;;;-80
2022/05/09 03:13:49;;;;;;;;;;;;;;;8.88;50.67383;102833.9;;;;-82
2022/05/09 03:14:52;;;;;;;7.3;1.6;;;;;;;;;;;;;-81
2022/05/09 03:18:51;;;;;;;;;;;;;;;8.85;50.82715;102831.7;;;;-82
2022/05/09 03:23:50;;;;;;;;;;;;;;;8.8;51.33203;102832.7;;;;-83
2022/05/09 03:28:52;;;;;;;;;;;;;;;8.76;51.24902;102825.8;;;;-83
2022/05/09 03:33:49;;;;;;;;;;;;;;;8.75;51.15918;102819.5;;;;-83
2022/05/09 03:38:50;;;;;;;;;;;;;;;8.72;51.25488;102818.7;;;;-84
2022/05/09 03:43:52;;;;;;;;;;;;;;;8.67;51.15039;102809.6;;;;-83
2022/05/09 03:44:52;;;;;;;4.6;1.6;;;;;;;;;;;;;-83
2022/05/09 03:48:58;;;;;;;;;;;;;;;8.67;51.00488;102806.6;;;;-82
2022/05/09 03:53:49;;;;;;;;;;;;;;;8.63;51.27832;102803;;;;-82
2022/05/09 03:58:49;;;;;;;;;;;;;;;8.61;51.56543;102801.9;;;;-82
2022/05/09 04:03:50;;;;;;;;;;;;;;;8.58;51.2168;102799.3;;;;-82
2022/05/09 04:08:50;;;;;;;;;;;;;;;8.54;51.83398;102800;;;;-83
2022/05/09 04:13:49;;;;;;;;;;;;;;;8.54;51.5791;102795.9;;;;-83
2022/05/09 04:18:51;;;;;;;;;;;;;;;8.54;51.3457;102789.3;;;;-82
2022/05/09 04:23:56;;;;;;;;;;;;;;;8.54;51.52344;102788.6;;;;-79
2022/05/09 04:28:49;;;;;;;;;;;;;;;8.52;51.37695;102783.1;;;;-78
2022/05/09 04:33:49;;;;;;;;;;;;;;;8.53;51.77637;102782.6;;;;-78
2022/05/09 04:38:50;;;;;;;;;;;;;;;8.54;51.90137;102780.1;;;;-78
2022/05/09 04:43:49;;;;;;;;;;;;;;;8.55;52.16895;102781.8;;;;-78
2022/05/09 04:44:53;;;;;;;7.5;1.9;;;;;;;;;;;;;-77
2022/05/09 04:48:49;;;;;;;;;;;;;;;8.57;52.38281;102775.7;;;;-77
2022/05/09 04:53:50;;;;;;;;;;;;;;;8.6;52.55176;102774.9;;;;-77
2022/05/09 04:58:52;;;;;;;;;;;;;;;8.62;53.07617;102763.6;;;;-78
2022/05/09 05:03:52;;;;;;;;;;;;;;;8.65;53.33594;102760.8;;;;-76
2022/05/09 05:08:48;;;;;;;;;;;;;;;8.68;53.7168;102762.4;;;;-77
2022/05/09 05:13:53;;;;;;;;;;;;;;;8.74;54.65723;102763.2;;;;-78
2022/05/09 05:14:56;;;;;;;6.3;1.9;;;;;;;;;;;;;-78
2022/05/09 05:18:50;;;;;;;;;;;;;;;8.79;53.97461;102761.5;;;;-77
2022/05/09 05:23:49;;;;;;;;;;;;;;;8.82;53.92383;102762.6;;;;-77
2022/05/09 05:28:51;;;;;;;;;;;;;;;8.9;54.44434;102763;;;;-77
2022/05/09 05:33:58;;;;;;;;;;;;;;;9.13;54.61719;102753.5;;;;-79
2022/05/09 05:43:19;;;;;;;;;;;;;;;10.22;51.93457;102747.4;;;;-77
2022/05/09 05:45:05;;;;;;;7.2;2.2;;;;;;;;;;;;;-78
2022/05/09 05:48:13;;;;;;;;;;;;;;;10.89;50.86523;102744.9;;;;-78
2022/05/09 05:53:14;;;;;;;;;;;;;;;11.5;49.84961;102747;;;;-78
2022/05/09 05:58:18;;;;;;;;;;;;;;;12.01;49.14648;102752.2;;;;-80
2022/05/09 06:03:14;;;;;;;;;;;;;;;12.49;48.29199;102758.5;;;;-78
2022/05/09 06:08:15;;;;;;;;;;;;;;;12.99;47.47168;102759.4;;;;-78
2022/05/09 06:13:15;;;;;;;;;;;;;;;13.52;46.90918;102759.5;;;;-77
2022/05/09 06:18:16;;;;;;;;;;;;;;;13.96;46.22559;102756;;;;-77
2022/05/09 06:23:16;;;;;;;;;;;;;;;14.39;45.25488;102758.9;;;;-78
2022/05/09 06:28:14;;;;;;;;;;;;;;;14.86;44.72852;102755.2;;;;-77
2022/05/09 06:33:13;;;;;;;;;;;;;;;15.26;44.31641;102757;;;;-79
2022/05/09 06:38:14;;;;;;;;;;;;;;;15.61;44.01172;102757.6;;;;-78
2022/05/09 06:43:16;;;;;;;;;;;;;;;15.92;43.63574;102756.6;;;;-78
2022/05/09 06:44:57;;;;;;;10.6;2.5;;;;;;;;;;;;;-78
2022/05/09 06:48:13;;;;;;;;;;;;;;;16.23;43.32617;102756.9;;;;-76
2022/05/09 06:53:13;;;;;;;;;;;;;;;16.56;43.14258;102759.5;;;;-78
2022/05/09 06:58:14;;;;;;;;;;;;;;;16.89;42.70898;102762.7;;;;-75
2022/05/09 07:03:12;;;;;;;;;;;;;;;17.24;42.37891;102770.1;;;;-77
2022/05/09 07:08:14;;;;;;;;;;;;;;;17.57;42.01367;102760.9;;;;-76
2022/05/09 07:13:15;;;;;;;;;;;;;;;17.88;41.88379;102757.7;;;;-78
2022/05/09 07:14:59;;;;;;;7.6;2.2;;;;;;;;;;;;;-75
2022/05/09 07:18:15;;;;;;;;;;;;;;;18.26;41.32617;102752.3;;;;-77
2022/05/09 07:29:57;;;;;;;;;;;;;;;17.49;44.49512;102767.1;;;;-88
2022/05/09 07:40:03;;;;;;;;;;;;;;;18;44.04688;102758.4;;;;-73
2022/05/09 07:45:01;;;;;;;10.9;3.2;;;;;;;;;;;;;-75
2022/05/09 07:45:13;;;;;;;;;;;;;;;18.22;43.68066;102753.1;;;;-73
2022/05/09 07:50:03;;;;;;;;;;;;;;;18.32;43.40625;102754.6;;;;-74
2022/05/09 07:55:03;;;;;;;;;;;;;;;18.41;42.97168;102739.9;;;;-73
2022/05/09 08:00:03;;;;;;;;;;;;;;;18.69;42.47363;102743.6;;;;-75
2022/05/09 08:05:05;;;;;;;;;;;;;;;19.1;41.1543;102743.4;;;;-81
2022/05/09 08:31:44;;;;;;;;;;;;;;;21.31;37.02051;102736.3;;;;-74
2022/05/09 08:36:51;;;;;;;;;;;;;;;20.76;36.80371;102734.2;;;;-71
2022/05/09 08:41:50;;;;;;;;;;;;;;;20.63;36.70117;102728.5;;;;-76
2022/05/09 08:45:16;;;;;;;10.5;3;;;;;;;;;;;;;-77
2022/05/09 08:47:14;;;;;;;;;;;;;;;21.27;35.74316;102721.1;;;;-89
2022/05/09 08:52:07;;;;;;;;;;;;;;;21.88;34.67578;102718.9;;;;-88
2022/05/09 08:56:51;;;;;;;;;;;;;;;22.19;33.93945;102722.7;;;;-86
2022/05/09 09:07:01;;;;;;;;;;;;;;;22.6;33.60156;102715.2;;;;-87
2022/05/09 09:11:58;;;;;;;;;;;;;;;22.66;32.72949;102702.9;;;;-86
2022/05/09 09:18:17;;;;;;;;;;;;;;;23.11;32.47363;102696;;;;-78
2022/05/09 09:23:24;;;;;;;;;;;;;;;23.5;31.9248;102692.5;;;;-81
2022/05/09 09:28:12;;;;;;;;;;;;;;;23.85;30.84961;102683.8;;;;-82
2022/05/09 09:33:13;;;;;;;;;;;;;;;24.13;30.15137;102681.6;;;;-80
2022/05/09 09:55:14;;;;;;;;;;;;;;;25.06;27.92676;102662.7;;;;-84
2022/05/09 10:00:17;;;;;;;;;;;;;;;25.26;27.36914;102649.7;;;;-81
2022/05/09 10:05:14;;;;;;;;;;;;;;;25.81;27.19336;102651.3;;;;-82
2022/05/09 10:10:38;;;;;;;;;;;;;;;25.93;26.95605;102642.1;;;;-82
2022/05/09 10:15:14;;;;;;;;;;;;;;;26.3;26.9209;102648.2;;;;-82
2022/05/09 10:20:30;;;;;;;;;;;;;;;;;;;;;
2022/05/09 10:30:24;;;;;;;;;;;;;;;26.98;26.58789;102633.7;;;;-84
2022/05/09 10:35:15;;;;;;;;;;;;;;;27.04;26.22949;102628.9;;;;-83
2022/05/09 10:45:38;;;;;;;7.4;2.2;;;;;;;;;;;;;-83
2022/05/09 10:47:52;;;;;;;;;;;;;;;27.45;25.66895;102613.3;;;;-82
2022/05/09 10:52:50;;;;;;;;;;;;;;;27.74;25.4873;102612.4;;;;-82
2022/05/09 10:58:13;;;;;;;;;;;;;;;28.14;25.33398;102604.5;;;;-83
2022/05/09 11:03:10;;;;;;;;;;;;;;;28.09;24.86328;102609.4;;;;-82
2022/05/09 11:20:58;;;;;;;;;;;;;;;28.17;24.44629;102588.7;;;;-86
2022/05/09 11:40:39;;;;;;;;;;;;;;;28.28;23.85449;102580.9;;;;-89
2022/05/09 11:50:32;;;;;;;;;;;;;;;28.47;23.7832;102562.4;;;;-88
2022/05/09 12:00:38;;;;;;;;;;;;;;;28.48;23.79492;102545.1;;;;-92
2022/05/09 12:05:42;;;;;;;;;;;;;;;28.73;24.04297;102535.9;;;;-92
2022/05/09 12:10:45;;;;;;;;;;;;;;;28.68;23.4541;102528.7;;;;-92
2022/05/09 12:33:32;;;;;;;;;;;;;;;29.08;23.5459;102495.3;;;;-72
2022/05/09 12:38:31;;;;;;;;;;;;;;;29.33;23.6875;102480.1;;;;-72
2022/05/09 12:43:26;;;;;;;;;;;;;;;29.19;23.33984;102484.9;;;;-72
2022/05/09 12:45:38;;;;;;;4.9;2;;;;;;;;;;;;;-72
2022/05/09 12:48:26;;;;;;;;;;;;;;;29.06;23.59082;102480.1;;;;-71
2022/05/09 12:53:34;;;;;;;;;;;;;;;29.07;23.25098;102475.2;;;;-72
2022/05/09 12:58:30;;;;;;;;;;;;;;;29.25;23.50781;102468.3;;;;-74
2022/05/09 13:03:26;;;;;;;;;;;;;;;29.12;23.40625;102470.1;;;;-72
2022/05/09 13:08:26;;;;;;;;;;;;;;;29.22;23.28223;102468.6;;;;-71
2022/05/09 13:13:31;;;;;;;;;;;;;;;29.32;23.19434;102457.4;;;;-71
2022/05/09 13:15:46;;;;;;;4.8;1.8;;;;;;;;;;;;;-70
2022/05/09 13:18:28;;;;;;;;;;;;;;;29.48;23.27246;102454.3;;;;-72
2022/05/09 13:23:33;;;;;;;;;;;;;;;29.39;23.26855;102455;;;;-72
2022/05/09 13:28:26;;;;;;;;;;;;;;;29.48;23.01367;102440.8;;;;-72
2022/05/09 13:33:27;;;;;;;;;;;;;;;29.5;22.94531;102437.5;;;;-72
2022/05/09 13:38:27;;;;;;;;;;;;;;;29.52;22.99316;102428.9;;;;-72
2022/05/09 13:43:30;;;;;;;;;;;;;;;29.85;22.5625;102422.9;;;;-71
2022/05/09 13:45:47;;;;;;;7.5;2.3;;;;;;;;;;;;;-73
2022/05/09 13:48:26;;;;;;;;;;;;;;;29.82;22.91406;102410.6;;;;-72
2022/05/09 13:53:28;;;;;;;;;;;;;;;29.87;23.01074;102413.4;;;;-72
2022/05/09 13:58:28;;;;;;;;;;;;;;;29.74;23.02734;102410.7;;;;-73
2022/05/09 14:03:27;;;;;;;;;;;;;;;29.82;22.71387;102408.9;;;;-72
2022/05/09 14:08:27;;;;;;;;;;;;;;;29.85;22.45703;102403.1;;;;-72
2022/05/09 14:13:34;;;;;;;;;;;;;;;30.04;22.84277;102398.9;;;;-72
2022/05/09 14:15:59;;;;;;;5.6;2.1;;;;;;;;;;;;;-71
2022/05/09 14:18:26;;;;;;;;;;;;;;;29.82;23.07813;102395.6;;;;-72
2022/05/09 14:23:26;;;;;;;;;;;;;;;29.52;23.56836;102390.5;;;;-72
2022/05/09 14:33:42;;;;;;;;;;;;;;;28.62;24.16602;102391.3;;;;-75
2022/05/09 14:38:36;;;;;;;;;;;;;;;28.16;24.82031;102392.3;;;;-74
2022/05/09 14:43:38;;;;;;;;;;;;;;;27.95;24.96094;102375.4;;;;-75
2022/05/09 14:46:04;;;;;;;5.8;2.4;;;;;;;;;;;;;-74
2022/05/09 14:48:32;;;;;;;;;;;;;;;28.03;24.92969;102363.7;;;;-76
2022/05/09 14:53:31;;;;;;;;;;;;;;;27.51;25.41602;102359.1;;;;-74
2022/05/09 14:58:28;;;;;;;;;;;;;;;27.23;25.92578;102358.3;;;;-74
2022/05/09 15:03:33;;;;;;;;;;;;;;;26.84;26.20703;102364.7;;;;-76
2022/05/09 15:08:36;;;;;;;;;;;;;;;;;;;;;
2022/05/09 15:13:27;;;;;;;;;;;;;;;26.67;26.60449;102364;;;;-80
2022/05/09 15:16:03;;;;;;;7.2;2.4;;;;;;;;;;;;;-80
2022/05/09 15:18:27;;;;;;;;;;;;;;;26.62;26.4502;102362.8;;;;-74
2022/05/09 15:23:26;;;;;;;;;;;;;;;26.43;26.64844;102355.8;;;;-74
2022/05/09 15:28:26;;;;;;;;;;;;;;;26.43;26.64844;102350.9;;;;-74
2022/05/09 15:33:26;;;;;;;;;;;;;;;26.28;26.82617;102352.6;;;;-75
2022/05/09 15:38:26;;;;;;;;;;;;;;;26.18;27.12305;102342.9;;;;-74
2022/05/09 15:43:29;;;;;;;;;;;;;;;25.97;27.0752;102336.5;;;;-73
2022/05/09 15:46:04;;;;;;;6.6;2.4;;;;;;;;;;;;;-74
2022/05/09 15:48:27;;;;;;;;;;;;;;;25.89;27.19824;102333.4;;;;-74
2022/05/09 15:53:26;;;;;;;;;;;;;;;25.79;27.41406;102330.5;;;;-74
2022/05/09 15:58:28;;;;;;;;;;;;;;;25.66;27.27832;102323.9;;;;-78
2022/05/09 16:03:26;;;;;;;;;;;;;;;25.43;27.83398;102323.7;;;;-74
2022/05/09 16:13:27;;;;;;;;;;;;;;;25.24;28.25098;102320.8;;;;-74
2022/05/09 16:16:08;;;;;;;8.7;3.4;;;;;;;;;;;;;-73
2022/05/09 16:18:28;;;;;;;;;;;;;;;25.08;28.75195;102313.2;;;;-73
2022/05/09 16:23:27;;;;;;;;;;;;;;;24.96;28.59375;102304.5;;;;-75
2022/05/09 16:28:29;;;;;;;;;;;;;;;24.85;28.5293;102299.6;;;;-73
2022/05/09 16:33:28;;;;;;;;;;;;;;;24.67;28.62207;102291.6;;;;-74
2022/05/09 16:38:34;;;;;;;;;;;;;;;24.4;29.23047;102291.7;;;;-70
2022/05/09 16:43:28;;;;;;;;;;;;;;;24.93;28.60352;102282.1;;;;-83
2022/05/09 16:46:30;;;;;;;106.8;52.6;;;;;;;;;;;;;-85
2022/05/09 16:48:29;;;;;;;;;;;;;;;25.21;28.92285;102275.4;;;;-83
2022/05/09 16:53:30;;;;;;;;;;;;;;;25.24;29.21484;102266.7;;;;-81
2022/05/09 16:58:33;;;;;;;;;;;;;;;25.15;29.56934;102257.8;;;;-82
2022/05/09 17:03:26;;;;;;;;;;;;;;;25.03;29.95605;102248.6;;;;-81
2022/05/09 17:08:26;;;;;;;;;;;;;;;24.87;30.24805;102236.2;;;;-81
2022/05/09 17:13:29;;;;;;;;;;;;;;;24.71;30.52637;102231.6;;;;-81
2022/05/09 17:16:15;;;;;;;54.1;27.3;;;;;;;;;;;;;-83
2022/05/09 17:18:28;;;;;;;;;;;;;;;24.55;30.82813;102223.2;;;;-82
2022/05/09 17:23:27;;;;;;;;;;;;;;;24.4;31.07324;102224.6;;;;-82
2022/05/09 17:28:33;;;;;;;;;;;;;;;24.25;31.29395;102221.4;;;;-81
2022/05/09 17:33:27;;;;;;;;;;;;;;;24.09;31.54883;102220.2;;;;-83
2022/05/09 17:38:26;;;;;;;;;;;;;;;23.94;31.73535;102215;;;;-80
2022/05/09 17:43:28;;;;;;;;;;;;;;;23.79;31.95703;102206;;;;-86
2022/05/09 17:46:31;;;;;;;29.1;14.2;;;;;;;;;;;;;-88
2022/05/09 17:48:32;;;;;;;;;;;;;;;23.63;31.8291;102209.5;;;;-89
2022/05/09 17:53:31;;;;;;;;;;;;;;;23.5;31.66895;102205.7;;;;-88
2022/05/09 17:58:46;;;;;;;;;;;;;;;23.33;31.76172;102203.2;;;;-89
2022/05/09 18:03:38;;;;;;;;;;;;;;;23.19;31.88965;102205.6;;;;-88
2022/05/09 18:08:31;;;;;;;;;;;;;;;23.03;31.97168;102207.8;;;;-87
2022/05/09 18:13:30;;;;;;;;;;;;;;;22.88;32.03027;102210.4;;;;-86
2022/05/09 18:16:25;;;;;;;17.8;8.9;;;;;;;;;;;;;-81
2022/05/09 18:18:36;;;;;;;;;;;;;;;22.73;32.08887;102217.9;;;;-87
2022/05/09 18:23:32;;;;;;;;;;;;;;;22.57;32.07715;102222.5;;;;-87
2022/05/09 18:28:27;;;;;;;;;;;;;;;22.39;32.12207;102219.4;;;;-87
2022/05/09 18:38:33;;;;;;;;;;;;;;;22.01;32.16406;102214;;;;-88
2022/05/09 18:43:28;;;;;;;;;;;;;;;21.82;32.27637;102211.8;;;;-85
2022/05/09 18:46:26;;;;;;;12.4;6.2;;;;;;;;;;;;;-88
2022/05/09 18:48:42;;;;;;;;;;;;;;;21.61;32.35352;102212.7;;;;-86
2022/05/09 18:53:26;;;;;;;;;;;;;;;21.39;32.50977;102212.4;;;;-86
2022/05/09 18:58:28;;;;;;;;;;;;;;;21.15;32.75684;102208;;;;-86
2022/05/09 19:03:32;;;;;;;;;;;;;;;20.9;33.00293;102209.1;;;;-87
2022/05/09 19:08:30;;;;;;;;;;;;;;;20.66;33.26074;102209.6;;;;-87
2022/05/09 19:13:28;;;;;;;;;;;;;;;20.42;33.58691;102208.5;;;;-84
2022/05/09 19:16:35;;;;;;;10.2;4.7;;;;;;;;;;;;;-85
2022/05/09 19:18:33;;;;;;;;;;;;;;;20.18;33.86621;102195.8;;;;-85
2022/05/09 19:23:26;;;;;;;;;;;;;;;19.93;34.11133;102188.9;;;;-87
2022/05/09 19:28:29;;;;;;;;;;;;;;;19.71;34.50586;102185.5;;;;-85
2022/05/09 19:38:27;;;;;;;;;;;;;;;19.22;35.1084;102179.4;;;;-86
2022/05/09 19:43:30;;;;;;;;;;;;;;;18.98;35.60449;102173.1;;;;-86
2022/05/09 19:46:37;;;;;;;10.1;3.8;;;;;;;;;;;;;-85
2022/05/09 19:48:29;;;;;;;;;;;;;;;18.74;35.76855;102172.2;;;;-86
2022/05/09 19:58:49;;;;;;;;;;;;;;;18.3;36.36035;102187.8;;;;-87
2022/05/09 20:03:35;;;;;;;;;;;;;;;18.12;36.60742;102191.1;;;;-86
2022/05/09 20:08:25;;;;;;;;;;;;;;;17.94;36.88867;102186.5;;;;-86
2022/05/09 20:13:37;;;;;;;;;;;;;;;17.76;37.16992;102193.3;;;;-86
2022/05/09 20:16:45;;;;;;;9.9;3.8;;;;;;;;;;;;;-85
2022/05/09 20:18:28;;;;;;;;;;;;;;;17.58;37.62207;102193.6;;;;-87
2022/05/09 20:23:39;;;;;;;;;;;;;;;17.42;38.01758;102201.8;;;;-86
2022/05/09 20:33:30;;;;;;;;;;;;;;;17.12;38.4248;102197.7;;;;-85
2022/05/09 20:38:30;;;;;;;;;;;;;;;16.97;38.67383;102199.4;;;;-87
2022/05/09 20:43:30;;;;;;;;;;;;;;;16.83;39.08105;102194.8;;;;-85
2022/05/09 20:46:38;;;;;;;8.9;3.6;;;;;;;;;;;;;-87
2022/05/09 20:48:27;;;;;;;;;;;;;;;16.71;39.21875;102185.7;;;;-83
2022/05/09 20:53:27;;;;;;;;;;;;;;;16.57;39.4541;102177.2;;;;-88
2022/05/09 20:58:27;;;;;;;;;;;;;;;16.45;39.62598;102187.5;;;;-87
2022/05/09 21:03:29;;;;;;;;;;;;;;;16.35;39.76563;102194.8;;;;-86
2022/05/09 21:08:29;;;;;;;;;;;;;;;16.24;40.12891;102191.2;;;;-88
2022/05/09 21:13:27;;;;;;;;;;;;;;;16.13;40.21094;102197.2;;;;-86
2022/05/09 21:16:41;;;;;;;7.1;3.1;;;;;;;;;;;;;-85
2022/05/09 21:18:26;;;;;;;;;;;;;;;16.05;40.45313;102189.3;;;;-87
2022/05/09 21:23:28;;;;;;;;;;;;;;;15.94;40.57813;102181.8;;;;-85
2022/05/09 21:28:28;;;;;;;;;;;;;;;15.88;40.5498;102181.1;;;;-88
2022/05/09 21:33:26;;;;;;;;;;;;;;;15.8;40.78125;102165.3;;;;-85
2022/05/09 21:43:26;;;;;;;;;;;;;;;15.68;41.40332;102144.4;;;;-86
2022/05/09 21:46:40;;;;;;;8.8;3.6;;;;;;;;;;;;;-86
2022/05/09 21:48:26;;;;;;;;;;;;;;;15.59;42.1084;102133;;;;-85
2022/05/09 21:53:29;;;;;;;;;;;;;;;15.52;42.71289;102118.1;;;;-86
2022/05/09 21:58:28;;;;;;;;;;;;;;;15.47;42.35742;102120.8;;;;-87
2022/05/09 22:03:27;;;;;;;;;;;;;;;15.4;42.83691;102115.3;;;;-87
2022/05/09 22:08:27;;;;;;;;;;;;;;;15.33;42.69434;102111;;;;-87
2022/05/09 22:13:28;;;;;;;;;;;;;;;15.26;42.91406;102111.5;;;;-87
2022/05/09 22:16:42;;;;;;;7.9;3.4;;;;;;;;;;;;;-85
2022/05/09 22:18:28;;;;;;;;;;;;;;;15.19;43.14453;102109.2;;;;-84
2022/05/09 22:23:28;;;;;;;;;;;;;;;15.11;43.44238;102105.1;;;;-85
2022/05/09 22:28:29;;;;;;;;;;;;;;;15.05;43.94336;102096.7;;;;-86
2022/05/09 22:33:32;;;;;;;;;;;;;;;14.98;44.11816;102095.6;;;;-86
2022/05/09 22:38:29;;;;;;;;;;;;;;;14.93;45.0498;102089.5;;;;-83
2022/05/09 22:43:32;;;;;;;;;;;;;;;14.88;45.65527;102085.5;;;;-86
2022/05/09 22:46:47;;;;;;;8;3.8;;;;;;;;;;;;;-86
2022/05/09 22:48:27;;;;;;;;;;;;;;;14.81;45.45605;102080;;;;-84
2022/05/09 22:53:34;;;;;;;;;;;;;;;14.79;47.09082;102081.9;;;;-86
2022/05/09 22:58:35;;;;;;;;;;;;;;;14.76;46.6582;102080.9;;;;-87
2022/05/09 23:03:28;;;;;;;;;;;;;;;14.72;46.75586;102077.8;;;;-86
2022/05/09 23:08:28;;;;;;;;;;;;;;;14.67;47.43848;102086.2;;;;-86
2022/05/09 23:13:32;;;;;;;;;;;;;;;14.61;48.3584;102084.8;;;;-85
2022/05/09 23:16:45;;;;;;;10.7;4.6;;;;;;;;;;;;;-86
2022/05/09 23:18:38;;;;;;;;;;;;;;;14.55;46.8291;102079.2;;;;-85
2022/05/09 23:28:34;;;;;;;;;;;;;;;14.41;46.67676;102054.9;;;;-86
2022/05/09 23:33:33;;;;;;;;;;;;;;;14.33;46.6582;102047.7;;;;-87
2022/05/09 23:38:27;;;;;;;;;;;;;;;14.27;46.9668;102042.8;;;;-85
2022/05/09 23:43:30;;;;;;;;;;;;;;;14.22;47.76172;102034.6;;;;-86
2022/05/09 23:47:07;;;;;;;10.5;4.5;;;;;;;;;;;;;-85
2022/05/09 23:48:26;;;;;;;;;;;;;;;14.17;47.83496;102028.2;;;;-85
2022/05/09 23:53:43;;;;;;;;;;;;;;;14.12;48.95605;102028.9;;;;-85
2022/05/09 23:58:28;;;;;;;;;;;;;;;14.04;47.96777;102026.3;;;;-84
